Phnom Penh International Airport
VDPP : now visible

Airfield :











YOU CAN JOIN US ON...

 
LOGIN :

Register | Disclaimer

   EN    FR    IT 

 









Legend :    VFR   Marginal VFR   IFR   Intensive IFR   Very Intensive IFR
Visi :
Ceiling :
>= 8 km
>= 3000ft
5 to 8 km
1000 to 3000 ft
1500m to 5 km
500 to 1000 ft
800 to 1500m
200 to 500 ft
< 800m
< 200 ft
Symbols :   Thunderstorms  Fog  Heavy snow  Heavy precipitations  Wind > 20 kt






- Airport Elevation : 40 ft
- IATA code : PNH


VDPP - Phnom Penh International

CURRENT METAR :
  • 170330Z 22006KT 170V280 9999 FEW017 33/25 Q1008

EXPIRED METARs :
  • 170300Z 22007KT 180V280 9999 FEW017 33/24 Q1008
  • 170230Z 19005KT 160V230 9999 FEW017 32/25 Q1008
  • 170200Z 20005KT 150V230 9999 FEW017 31/26 Q1008
  • 170130Z 19005KT 160V230 9999 FEW017 SCT040 31/26 Q1008
  • 170100Z 17004KT 150V210 9999 FEW017 SCT040 31/25 Q1008
  • 170030Z 16004KT 9999 FEW017 SCT040 30/25 Q1008
  • 170000Z 16003KT 9999 FEW017 SCT040 29/25 Q1007
  • 162330Z 14004KT 9999 SCT017 28/26 Q1007
  • 162300Z 16003KT 9999 SCT017 27/25 Q1007

TAF TAF VDPP
Valid from the 17 at 00:00 until the 17 at 18:00 UTC


162300Z 1700/1718 25008KT 9999 SCT017 SCT040
TEMPO 1703/1705 5000 TSRA SCT015 FEW017CB BKN040
VDPP FIR / Asia



MET'MAP, your aeronautical weather chart ! - Copyright ORBIFLY December 2007 - Disclaimer

ORBIFLY MET'MAP TEAM :

Programming & Development : Alexandra Zaïnal
Original concept : Baudouin d'Aumeries
Technical & hardware support : Manuel Goepfert
Assistance : Marc-Olivier Méhu




SOURCES & CREDITS :

   NOAA       Earth
Advisory